createdAt,value
2022-10-04T00:02:03.520Z,1013.229
2022-10-04T00:07:15.851Z,1013.227
2022-10-04T00:12:28.181Z,1013.286
2022-10-04T00:17:40.468Z,1013.323
2022-10-04T00:22:52.783Z,1013.279
2022-10-04T00:28:05.206Z,1013.322
2022-10-04T00:33:17.435Z,1013.306
2022-10-04T00:38:29.992Z,1013.333
2022-10-04T00:43:42.208Z,1013.352
2022-10-04T00:48:54.304Z,1013.319
2022-10-04T00:54:07.577Z,1013.341
2022-10-04T00:59:19.892Z,1013.275
2022-10-04T01:04:32.112Z,1013.245
2022-10-04T01:09:44.392Z,1013.279
2022-10-04T01:14:56.874Z,1013.237
2022-10-04T01:20:08.989Z,1013.163
2022-10-04T01:25:21.282Z,1013.201
2022-10-04T01:30:33.644Z,1013.158
2022-10-04T01:35:45.963Z,1013.088
2022-10-04T01:40:58.582Z,1013.063
2022-10-04T01:46:10.898Z,1013.102
2022-10-04T01:51:23.017Z,1013.03
2022-10-04T01:56:35.341Z,1012.945
2022-10-04T02:01:47.729Z,1013.006
2022-10-04T02:06:59.998Z,1012.969
2022-10-04T02:12:12.343Z,1012.908
2022-10-04T02:17:24.782Z,1012.948
2022-10-04T02:22:36.999Z,1012.939
2022-10-04T02:27:49.193Z,1012.967
2022-10-04T02:33:01.607Z,1013.013
2022-10-04T02:38:14.328Z,1012.968
2022-10-04T02:43:26.672Z,1012.887
2022-10-04T02:48:38.907Z,1012.818
2022-10-04T02:53:51.309Z,1012.841
2022-10-04T02:59:03.472Z,1012.766
2022-10-04T03:04:15.754Z,1012.789
2022-10-04T03:09:29.948Z,1012.747
2022-10-04T03:14:40.375Z,1012.744
2022-10-04T03:19:52.741Z,1012.71
2022-10-04T03:25:05.210Z,1012.769
2022-10-04T03:30:17.601Z,1012.771
2022-10-04T03:35:30.100Z,1012.776
2022-10-04T03:40:42.106Z,1012.832
2022-10-04T03:45:54.450Z,1012.816
2022-10-04T03:51:06.758Z,1012.791
2022-10-04T03:56:18.953Z,1012.798
2022-10-04T04:01:31.793Z,1012.839
2022-10-04T04:06:44.457Z,1012.834
2022-10-04T04:11:56.858Z,1012.867
2022-10-04T04:17:09.226Z,1013.001
2022-10-04T04:22:21.441Z,1012.982
2022-10-04T04:27:33.846Z,1012.953
2022-10-04T04:32:46.273Z,1012.959
2022-10-04T04:37:58.817Z,1012.959
2022-10-04T04:43:11.041Z,1013.003
2022-10-04T04:48:23.458Z,1013.019
2022-10-04T04:53:35.909Z,1013.103
2022-10-04T04:58:48.082Z,1013.153
2022-10-04T05:04:00.397Z,1013.049
2022-10-04T05:09:13.060Z,1013.142
2022-10-04T05:14:25.401Z,1013.08
2022-10-04T05:19:37.701Z,1013.145
2022-10-04T05:24:49.950Z,1013.163
2022-10-04T05:30:02.283Z,1013.183
2022-10-04T05:35:14.776Z,1013.095
2022-10-04T05:40:27.272Z,1013.084
2022-10-04T05:45:39.679Z,1013.163
2022-10-04T05:50:52.014Z,1013.209
2022-10-04T05:56:04.175Z,1013.287
2022-10-04T06:01:16.456Z,1013.323
2022-10-04T06:06:29.079Z,1013.316
2022-10-04T06:11:41.820Z,1013.308
2022-10-04T06:16:53.777Z,1013.33
2022-10-04T06:22:06.236Z,1013.247
2022-10-04T06:27:18.539Z,1013.228
2022-10-04T06:32:30.807Z,1013.35
2022-10-04T06:37:43.333Z,1013.378
2022-10-04T06:42:55.681Z,1013.417
2022-10-04T06:48:07.985Z,1013.434
2022-10-04T06:53:20.236Z,1013.494
2022-10-04T06:58:32.666Z,1013.505
2022-10-04T07:03:48.026Z,1013.506
2022-10-04T07:08:57.601Z,1013.569
2022-10-04T07:14:09.867Z,1013.534
2022-10-04T07:19:22.666Z,1013.615
2022-10-04T07:24:35.199Z,1013.67
2022-10-04T07:29:47.436Z,1013.806
2022-10-04T07:34:59.628Z,1013.822
2022-10-04T07:40:11.834Z,1013.882
2022-10-04T07:45:27.987Z,1013.845
2022-10-04T07:50:36.508Z,1013.882
2022-10-04T07:55:48.909Z,1013.889
2022-10-04T08:01:01.443Z,1013.903
2022-10-04T08:06:13.781Z,1013.998
2022-10-04T08:11:26.290Z,1014.122
2022-10-04T08:16:38.950Z,1014.218
2022-10-04T08:21:52.281Z,1014.241
2022-10-04T08:27:04.676Z,1014.205
2022-10-04T08:32:17.638Z,1014.218
2022-10-04T08:37:30.079Z,1014.258
2022-10-04T08:42:42.438Z,1014.29
2022-10-04T08:47:54.785Z,1014.221
2022-10-04T08:53:10.766Z,1014.263
2022-10-04T08:58:19.228Z,1014.228
2022-10-04T09:03:31.561Z,1014.204
2022-10-04T09:08:44.089Z,1014.221
2022-10-04T09:13:56.737Z,1014.236
2022-10-04T09:19:09.089Z,1014.205
2022-10-04T09:24:21.443Z,1014.265
2022-10-04T09:29:34.012Z,1014.193
2022-10-04T09:34:46.672Z,1014.22
2022-10-04T09:39:59.025Z,1014.209
2022-10-04T09:45:11.281Z,1014.16
2022-10-04T09:50:23.728Z,1014.151
2022-10-04T09:55:36.051Z,1014.188
2022-10-04T10:00:48.360Z,1014.136
2022-10-04T10:06:00.904Z,1014.086
2022-10-04T10:11:13.226Z,1014.144
2022-10-04T10:16:25.774Z,1014.144
2022-10-04T10:21:38.084Z,1014.204
2022-10-04T10:26:50.617Z,1014.218
2022-10-04T10:32:03.101Z,1014.183
2022-10-04T10:37:15.370Z,1014.179
2022-10-04T10:42:27.537Z,1014.219
2022-10-04T10:47:39.999Z,1014.16
2022-10-04T10:52:52.539Z,1014.228
2022-10-04T10:58:04.703Z,1014.192
2022-10-04T11:03:22.153Z,1014.171
2022-10-04T11:08:29.957Z,1014.221
2022-10-04T11:13:42.324Z,1014.23
2022-10-04T11:18:54.504Z,1014.29
2022-10-04T11:24:06.888Z,1014.21
2022-10-04T11:29:19.588Z,1014.097
2022-10-04T11:34:31.969Z,1014.133
2022-10-04T11:39:44.714Z,1014.077
2022-10-04T11:44:56.791Z,1014.085
2022-10-04T11:50:09.235Z,1014.058
2022-10-04T11:55:21.652Z,1013.997
2022-10-04T12:00:34.105Z,1013.927
2022-10-04T12:05:46.601Z,1013.917
2022-10-04T12:10:58.945Z,1013.88
2022-10-04T12:16:11.629Z,1013.888
2022-10-04T12:21:23.703Z,1013.858
2022-10-04T12:26:36.027Z,1013.83
2022-10-04T12:31:48.812Z,1013.736
2022-10-04T12:37:01.132Z,1013.811
2022-10-04T12:42:13.476Z,1013.815
2022-10-04T12:47:26.560Z,1013.853
2022-10-04T12:52:39.126Z,1013.831
2022-10-04T12:57:51.579Z,1013.746
2022-10-04T13:03:03.759Z,1013.847
2022-10-04T13:08:16.078Z,1013.83
2022-10-04T13:13:28.142Z,1013.73
2022-10-04T13:18:40.431Z,1013.574
2022-10-04T13:23:52.845Z,1013.482
2022-10-04T13:29:05.537Z,1013.496
2022-10-04T13:34:18.435Z,1013.44
2022-10-04T13:39:30.769Z,1013.287
2022-10-04T13:44:43.513Z,1013.277
2022-10-04T13:49:56.030Z,1013.257
2022-10-04T13:55:08.548Z,1013.326
2022-10-04T14:00:21.146Z,1013.221
2022-10-04T14:05:33.594Z,1013.27
2022-10-04T14:10:46.029Z,1013.185
2022-10-04T14:15:58.409Z,1013.125
2022-10-04T14:21:12.332Z,1013.103
2022-10-04T14:26:23.282Z,1013.079
2022-10-04T14:31:37.155Z,1013.069
2022-10-04T14:36:48.598Z,1012.915
2022-10-04T14:42:01.177Z,1013.023
2022-10-04T14:47:13.525Z,1012.902
2022-10-04T14:52:26.096Z,1012.823
2022-10-04T14:57:38.322Z,1012.713
2022-10-04T15:02:50.948Z,1012.661
2022-10-04T15:08:02.978Z,1012.653
2022-10-04T15:13:15.425Z,1012.582
2022-10-04T15:18:27.670Z,1012.54
2022-10-04T15:23:39.889Z,1012.401
2022-10-04T15:28:52.178Z,1012.521
2022-10-04T15:34:04.274Z,1012.586
2022-10-04T15:39:16.440Z,1012.604
2022-10-04T15:44:28.977Z,1012.554
2022-10-04T15:49:41.210Z,1012.679
2022-10-04T15:54:53.565Z,1012.652
2022-10-04T16:00:05.889Z,1012.515
2022-10-04T16:05:18.592Z,1012.641
2022-10-04T16:10:31.236Z,1012.533
2022-10-04T16:15:43.854Z,1012.513
2022-10-04T16:20:56.170Z,1012.324
2022-10-04T16:26:08.363Z,1012.246
2022-10-04T16:31:20.909Z,1012.179
2022-10-04T16:36:33.266Z,1012.217
2022-10-04T16:41:45.350Z,1012.291
2022-10-04T16:46:57.683Z,1012.245
2022-10-04T16:52:09.914Z,1012.305
2022-10-04T16:57:22.228Z,1012.379
2022-10-04T17:02:34.539Z,1012.397
2022-10-04T17:07:46.758Z,1012.449
2022-10-04T17:12:58.959Z,1012.435
2022-10-04T17:18:11.427Z,1012.455
2022-10-04T17:23:23.782Z,1012.54
2022-10-04T17:28:36.055Z,1012.498
2022-10-04T17:33:48.354Z,1012.422
2022-10-04T17:39:00.704Z,1012.599
2022-10-04T17:44:12.944Z,1012.603
2022-10-04T17:49:25.249Z,1012.424
2022-10-04T17:54:37.733Z,1012.408
2022-10-04T17:59:53.743Z,1012.379
2022-10-04T18:05:06.260Z,1012.339
2022-10-04T18:10:22.328Z,1012.239
2022-10-04T18:15:31.009Z,1012.372
2022-10-04T18:20:43.577Z,1012.412
2022-10-04T18:25:56.060Z,1012.376
2022-10-04T18:31:08.479Z,1012.378
2022-10-04T18:36:27.176Z,1012.245
2022-10-04T18:41:39.611Z,1012.206
2022-10-04T18:46:52.299Z,1012.195
2022-10-04T18:52:04.470Z,1012.052
2022-10-04T18:57:16.837Z,1012.228
2022-10-04T19:02:32.719Z,1012.337
2022-10-04T19:07:42.492Z,1012.31
2022-10-04T19:12:54.906Z,1012.245
2022-10-04T19:18:07.308Z,1012.169
2022-10-04T19:23:19.680Z,1012.185
2022-10-04T19:28:32.026Z,1012.276
2022-10-04T19:33:44.397Z,1012.289
2022-10-04T19:38:56.823Z,1012.322
2022-10-04T19:44:09.276Z,1012.378
2022-10-04T19:49:21.666Z,1012.323
2022-10-04T19:54:33.994Z,1012.385
2022-10-04T19:59:46.357Z,1012.372
2022-10-04T20:04:58.632Z,1012.295
2022-10-04T20:10:11.505Z,1012.27
2022-10-04T20:15:27.582Z,1012.266
2022-10-04T20:20:36.151Z,1012.253
2022-10-04T20:25:48.710Z,1012.28
2022-10-04T20:31:01.306Z,1012.178
2022-10-04T20:36:13.516Z,1012.127
2022-10-04T20:41:25.955Z,1012.135
2022-10-04T20:46:38.444Z,1012.222
2022-10-04T20:51:51.194Z,1012.14
2022-10-04T20:57:03.433Z,1012.021
2022-10-04T21:02:15.790Z,1012.053
2022-10-04T21:07:28.058Z,1012.07
2022-10-04T21:12:40.393Z,1012.077
2022-10-04T21:17:52.730Z,1012.291
2022-10-04T21:23:05.205Z,1012.301
2022-10-04T21:28:18.730Z,1012.021
2022-10-04T21:33:30.894Z,1011.836
2022-10-04T21:38:43.143Z,1011.773
2022-10-04T21:43:55.654Z,1011.754
2022-10-04T21:49:08.223Z,1011.754
2022-10-04T21:54:20.606Z,1011.731
2022-10-04T21:59:33.040Z,1011.711
2022-10-04T22:04:45.810Z,1011.665
2022-10-04T22:09:59.327Z,1011.57
2022-10-04T22:15:11.596Z,1011.558
2022-10-04T22:20:24.024Z,1011.455
2022-10-04T22:25:36.286Z,1011.41
2022-10-04T22:30:48.617Z,1011.457
2022-10-04T22:36:01.241Z,1011.362
2022-10-04T22:41:13.455Z,1011.298
2022-10-04T22:46:25.990Z,1011.292
2022-10-04T22:51:38.500Z,1011.152
2022-10-04T22:56:50.839Z,1011.123
2022-10-04T23:02:02.932Z,1011.16
2022-10-04T23:07:15.720Z,1011.126
2022-10-04T23:12:28.152Z,1011.186
2022-10-04T23:17:40.820Z,1011.177
2022-10-04T23:22:53.265Z,1011.187
2022-10-04T23:28:05.655Z,1011.082
2022-10-04T23:33:17.940Z,1010.97
2022-10-04T23:38:30.581Z,1010.867
2022-10-04T23:43:42.755Z,1010.917
2022-10-04T23:48:55.184Z,1011.009
2022-10-04T23:54:07.522Z,1011.079
2022-10-04T23:59:19.442Z,1011.114
